aviador You're here:

LFMI Decoded Metar

ISTRES in FRANCE
Report Time2018-01-21 06:30:00
UTC Time2018-01-21 06:53:18
Flight Rules vfr VFR
Wind320° at 15 kt
W.Decomp.*RWY 33: 14.8 kt HW 2.6 kt LCW
W.Rank320° ranks 4
Current wind is above 320° avg. (13.3)
Visibility9999 m
Phenomena:N/A
Clouds:N/A
Expected CloudBase > 2,800 ft AGL from Temp-Dew spread
CeilingNone
Temp12°C (ISA -3)
Dew Point05°C (63% RH)
AAT5.5°C
QNH1013 hPa
Density Alt-141 ft
Elevation79 ft
Report Wrong Elevation
Raw Report
LFMI 210630Z AUTO 32015KT CAVOK 12/05 Q1013 TEMPO 34020G30KT=

Extra information for LFMI:More info

Metar Taf Metar & Taf Last 4 Metars F.Rules Stats Wind Profile Meteogram Temp Stats Airport Information Weather charts Add Link Nearby VenuesMetar ALERT Operation Metar Decoded Social comments